createdAt,value
2023-05-23T00:00:12.092Z,10.16
2023-05-23T00:02:42.384Z,10.18
2023-05-23T00:05:11.603Z,10.34
2023-05-23T00:07:40.509Z,10.60
2023-05-23T00:10:09.710Z,10.81
2023-05-23T00:12:40.042Z,11.06
2023-05-23T00:15:10.651Z,11.19
2023-05-23T00:17:40.131Z,11.25
2023-05-23T00:20:11.617Z,11.32
2023-05-23T00:22:43.622Z,11.47
2023-05-23T00:25:12.832Z,11.63
2023-05-23T00:27:41.730Z,11.67
2023-05-23T00:30:11.144Z,11.67
2023-05-23T00:32:40.078Z,11.76
2023-05-23T00:35:09.593Z,11.77
2023-05-23T00:37:38.820Z,11.83
2023-05-23T00:40:08.878Z,11.90
2023-05-23T00:42:37.798Z,12.01
2023-05-23T00:45:07.349Z,12.18
2023-05-23T00:47:36.547Z,12.44
2023-05-23T00:50:05.961Z,12.75
2023-05-23T00:52:35.356Z,13.00
2023-05-23T00:55:05.010Z,13.12
2023-05-23T00:57:40.358Z,13.28
2023-05-23T01:00:11.229Z,13.50
2023-05-23T01:02:47.902Z,13.64
2023-05-23T01:05:18.448Z,13.80
2023-05-23T01:07:51.676Z,13.96
2023-05-23T01:13:28.723Z,14.73
2023-05-23T01:16:23.202Z,15.07
2023-05-23T01:19:28.849Z,15.60
2023-05-23T01:22:02.878Z,15.72
2023-05-23T01:24:44.504Z,15.67
2023-05-23T01:27:30.602Z,15.58
2023-05-23T01:30:03.414Z,15.75
2023-05-23T01:32:33.924Z,15.91
2023-05-23T01:35:03.858Z,16.30
2023-05-23T01:37:32.844Z,16.93
2023-05-23T01:40:01.795Z,17.52
2023-05-23T01:42:33.527Z,17.88
2023-05-23T01:45:02.566Z,17.99
2023-05-23T01:47:34.841Z,18.18
2023-05-23T01:50:04.862Z,18.49
2023-05-23T01:52:34.675Z,19.29
2023-05-23T01:55:10.411Z,20.10
2023-05-23T01:57:40.817Z,20.38
2023-05-23T02:00:13.798Z,20.66
2023-05-23T02:02:43.856Z,22.19
2023-05-23T02:05:12.967Z,24.06
2023-05-23T02:07:41.847Z,25.70
2023-05-23T02:10:11.480Z,27.13
2023-05-23T02:12:40.684Z,28.13
2023-05-23T02:15:10.113Z,28.15
2023-05-23T02:17:43.607Z,27.51
2023-05-23T02:20:12.893Z,26.82
2023-05-23T02:22:41.757Z,26.53
2023-05-23T02:25:11.103Z,26.15
2023-05-23T02:27:41.429Z,26.03
2023-05-23T02:30:10.792Z,25.86
2023-05-23T02:32:39.699Z,25.48
2023-05-23T02:35:09.275Z,25.07
2023-05-23T02:37:38.230Z,24.73
2023-05-23T02:40:10.945Z,24.46
2023-05-23T02:42:39.834Z,24.44
2023-05-23T02:45:09.944Z,24.71
2023-05-23T02:47:39.261Z,24.90
2023-05-23T02:50:08.864Z,25.15
2023-05-23T02:52:37.820Z,25.90
2023-05-23T02:55:07.446Z,27.31
2023-05-23T02:57:42.281Z,28.91
2023-05-23T03:00:12.949Z,29.31
2023-05-23T03:02:43.607Z,28.92
2023-05-23T03:05:12.536Z,29.79
2023-05-23T03:07:41.540Z,30.55
2023-05-23T03:10:11.179Z,31.56
2023-05-23T03:12:40.673Z,33.09
2023-05-23T03:15:10.640Z,32.67
2023-05-23T03:17:43.036Z,30.37
2023-05-23T03:20:12.790Z,28.04
2023-05-23T03:22:44.147Z,25.99
2023-05-23T03:25:13.134Z,24.11
2023-05-23T03:27:42.258Z,22.74
2023-05-23T03:30:11.556Z,21.99
2023-05-23T03:32:40.696Z,23.11
2023-05-23T03:35:10.033Z,24.92
2023-05-23T03:37:39.239Z,25.17
2023-05-23T03:40:09.055Z,25.78
2023-05-23T03:42:39.413Z,27.56
2023-05-23T03:45:08.756Z,27.87
2023-05-23T03:47:38.111Z,26.61
2023-05-23T03:50:08.273Z,25.18
2023-05-23T03:52:38.579Z,23.93
2023-05-23T03:55:07.855Z,23.13
2023-05-23T03:57:36.783Z,22.34
2023-05-23T04:00:13.035Z,21.59
2023-05-23T04:02:52.503Z,20.92
2023-05-23T04:05:25.402Z,20.28
2023-05-23T04:07:55.190Z,19.66
2023-05-23T04:10:24.906Z,18.91
2023-05-23T04:12:54.001Z,18.44
2023-05-23T04:15:22.970Z,18.25
2023-05-23T04:17:57.323Z,18.02
2023-05-23T04:20:28.385Z,17.27
2023-05-23T04:22:57.540Z,17.04
2023-05-23T04:25:27.928Z,18.30
2023-05-23T04:28:11.056Z,19.34
2023-05-23T04:30:40.069Z,19.78
2023-05-23T04:33:10.682Z,20.70
2023-05-23T04:35:41.516Z,21.87
2023-05-23T04:38:11.025Z,22.88
2023-05-23T04:40:40.656Z,23.08
2023-05-23T04:43:30.120Z,22.67
2023-05-23T04:46:05.091Z,22.36
2023-05-23T04:48:45.407Z,22.60
2023-05-23T04:51:14.366Z,24.26
2023-05-23T04:53:55.049Z,27.27
2023-05-23T04:56:27.951Z,28.83
2023-05-23T04:58:57.174Z,29.15
2023-05-23T05:01:31.940Z,29.13
2023-05-23T05:04:02.173Z,29.70
2023-05-23T05:06:31.648Z,31.10
2023-05-23T05:09:00.668Z,32.18
2023-05-23T05:11:29.614Z,31.35
2023-05-23T05:13:58.542Z,32.14
2023-05-23T05:16:27.728Z,33.36
2023-05-23T05:18:57.923Z,34.53
2023-05-23T05:21:26.912Z,34.38
2023-05-23T05:23:56.413Z,33.29
2023-05-23T05:26:25.387Z,32.07
2023-05-23T05:28:54.395Z,30.11
2023-05-23T05:31:24.129Z,29.27
2023-05-23T05:33:52.995Z,30.54
2023-05-23T05:36:22.372Z,32.05
2023-05-23T05:38:53.740Z,33.61
2023-05-23T05:41:23.914Z,34.19
2023-05-23T05:43:55.214Z,34.25
2023-05-23T05:46:24.369Z,33.77
2023-05-23T05:48:54.671Z,33.83
2023-05-23T05:51:24.168Z,34.75
2023-05-23T05:53:53.101Z,35.33
2023-05-23T05:56:23.195Z,34.87
2023-05-23T05:58:52.047Z,32.39
2023-05-23T06:01:22.287Z,29.24
2023-05-23T06:03:51.563Z,27.04
2023-05-23T06:06:21.123Z,25.30
2023-05-23T06:08:50.278Z,24.05
2023-05-23T06:11:19.289Z,23.11
2023-05-23T06:13:48.176Z,22.71
2023-05-23T06:16:17.213Z,23.82
2023-05-23T06:18:47.297Z,25.38
2023-05-23T06:21:16.986Z,27.03
2023-05-23T06:23:50.574Z,26.25
2023-05-23T06:26:19.519Z,26.14
2023-05-23T06:28:48.442Z,26.40
2023-05-23T06:31:17.313Z,25.14
2023-05-23T06:33:46.359Z,24.13
2023-05-23T06:36:15.393Z,23.53
2023-05-23T06:38:44.217Z,24.25
2023-05-23T06:41:13.090Z,24.87
2023-05-23T06:43:42.016Z,25.34
2023-05-23T06:46:16.214Z,26.69
2023-05-23T06:48:45.331Z,26.02
2023-05-23T06:51:14.316Z,24.66
2023-05-23T06:53:44.138Z,23.43
2023-05-23T06:56:13.673Z,22.31
2023-05-23T06:58:53.638Z,21.47
2023-05-23T07:01:24.488Z,21.03
2023-05-23T07:03:53.704Z,20.64
2023-05-23T07:06:23.555Z,20.52
2023-05-23T07:08:53.096Z,20.59
2023-05-23T07:11:23.807Z,20.69
2023-05-23T07:13:59.988Z,20.85
2023-05-23T07:16:41.862Z,21.15
2023-05-23T07:19:10.973Z,22.45
2023-05-23T07:21:47.411Z,25.24
2023-05-23T07:24:19.188Z,27.54
2023-05-23T07:26:48.235Z,27.77
2023-05-23T07:29:17.109Z,26.81
2023-05-23T07:31:48.288Z,25.95
2023-05-23T07:34:17.231Z,25.93
2023-05-23T07:36:54.974Z,25.38
2023-05-23T07:39:26.517Z,24.53
2023-05-23T07:41:59.503Z,24.24
2023-05-23T07:44:29.693Z,23.60
2023-05-23T07:46:58.792Z,23.07
2023-05-23T07:49:27.972Z,22.39
2023-05-23T07:51:59.245Z,21.99
2023-05-23T07:54:29.034Z,22.02
2023-05-23T07:57:01.778Z,21.99
2023-05-23T07:59:31.043Z,22.06
2023-05-23T08:02:01.451Z,21.74
2023-05-23T08:04:31.020Z,21.66
2023-05-23T08:07:05.526Z,21.81
2023-05-23T08:09:56.836Z,21.97
2023-05-23T08:12:25.749Z,21.70
2023-05-23T08:15:04.188Z,21.21
2023-05-23T08:20:12.853Z,21.21
2023-05-23T08:22:41.899Z,21.10
2023-05-23T08:25:11.829Z,20.80
2023-05-23T08:27:42.345Z,20.28
2023-05-23T08:30:30.313Z,19.72
2023-05-23T08:32:59.498Z,19.48
2023-05-23T08:35:29.909Z,19.49
2023-05-23T08:37:58.871Z,19.76
2023-05-23T08:40:31.982Z,19.70
2023-05-23T08:43:20.300Z,19.63
2023-05-23T08:45:52.079Z,19.41
2023-05-23T08:48:22.016Z,19.29
2023-05-23T08:50:54.158Z,19.49
2023-05-23T08:53:29.012Z,19.79
2023-05-23T08:56:06.389Z,19.83
2023-05-23T08:58:44.505Z,19.71
2023-05-23T09:01:15.276Z,19.50
2023-05-23T09:03:45.049Z,19.32
2023-05-23T09:06:22.693Z,19.25
2023-05-23T09:08:52.622Z,19.24
2023-05-23T09:11:23.327Z,19.32
2023-05-23T09:13:52.959Z,19.25
2023-05-23T09:16:24.173Z,19.17
2023-05-23T09:18:57.961Z,18.91
2023-05-23T09:21:28.599Z,18.84
2023-05-23T09:24:04.294Z,18.89
2023-05-23T09:26:33.753Z,18.90
2023-05-23T09:29:06.654Z,18.85
2023-05-23T09:31:35.787Z,18.73
2023-05-23T09:34:05.242Z,18.67
2023-05-23T09:36:35.655Z,18.38
2023-05-23T09:39:06.256Z,18.14
2023-05-23T09:41:36.115Z,18.03
2023-05-23T09:44:10.282Z,17.83
2023-05-23T09:46:39.598Z,17.89
2023-05-23T09:49:19.076Z,17.90
2023-05-23T09:52:00.204Z,17.98
2023-05-23T09:54:29.324Z,17.87
2023-05-23T09:57:02.002Z,17.67
2023-05-23T09:59:32.822Z,17.40
2023-05-23T10:02:04.684Z,17.32
2023-05-23T10:04:36.169Z,17.27
2023-05-23T10:07:17.876Z,17.07
2023-05-23T10:09:54.917Z,17.09
2023-05-23T10:12:51.100Z,17.19
2023-05-23T10:15:24.548Z,17.28
2023-05-23T10:18:19.168Z,17.53
2023-05-23T10:20:56.728Z,17.72
2023-05-23T10:23:25.734Z,17.73
2023-05-23T10:25:55.954Z,17.62
2023-05-23T10:28:25.282Z,17.52
2023-05-23T10:30:54.302Z,17.42
2023-05-23T10:33:24.509Z,17.30
2023-05-23T10:36:10.661Z,17.24
2023-05-23T10:38:51.867Z,17.18
2023-05-23T10:41:35.008Z,17.29
2023-05-23T10:44:31.967Z,17.53
2023-05-23T10:47:04.872Z,17.65
2023-05-23T10:49:45.683Z,17.61
2023-05-23T10:52:18.158Z,17.59
2023-05-23T10:54:53.007Z,17.28
2023-05-23T10:57:24.013Z,16.98
2023-05-23T10:59:53.068Z,16.78
2023-05-23T11:02:30.220Z,16.72
2023-05-23T11:05:25.169Z,16.75
2023-05-23T11:08:18.351Z,16.71
2023-05-23T11:10:57.490Z,16.56
2023-05-23T11:13:26.627Z,16.37
2023-05-23T11:15:55.590Z,16.18
2023-05-23T11:18:28.099Z,16.02
2023-05-23T11:20:59.551Z,16.06
2023-05-23T11:23:42.419Z,16.18
2023-05-23T11:26:34.585Z,16.28
2023-05-23T11:29:06.413Z,16.34
2023-05-23T11:31:39.064Z,16.25
2023-05-23T11:34:08.425Z,16.17
2023-05-23T11:36:37.413Z,16.14
2023-05-23T11:39:06.420Z,16.18
2023-05-23T11:41:36.569Z,16.15
2023-05-23T11:44:13.648Z,16.05
2023-05-23T11:46:43.447Z,16.01
2023-05-23T11:49:15.485Z,15.96
2023-05-23T11:51:44.548Z,15.89
2023-05-23T11:54:14.097Z,15.76
2023-05-23T11:56:43.103Z,15.64
2023-05-23T11:59:12.099Z,15.53
2023-05-23T12:01:42.192Z,15.47
2023-05-23T12:04:13.477Z,15.37
2023-05-23T12:06:42.726Z,15.30
2023-05-23T12:09:14.716Z,15.17
2023-05-23T12:11:44.909Z,15.14
2023-05-23T12:14:18.181Z,15.09
2023-05-23T12:16:47.978Z,15.08
2023-05-23T12:19:20.555Z,15.03
2023-05-23T12:21:50.726Z,15.01
2023-05-23T12:24:23.979Z,14.94
2023-05-23T12:26:55.522Z,14.94
2023-05-23T12:29:35.914Z,14.94
2023-05-23T12:32:07.045Z,14.93
2023-05-23T12:34:36.171Z,14.83
2023-05-23T12:37:19.086Z,14.82
2023-05-23T12:39:49.637Z,14.78
2023-05-23T12:42:18.610Z,14.72
2023-05-23T12:44:50.314Z,14.71
2023-05-23T12:47:19.442Z,14.66
2023-05-23T12:49:48.880Z,14.64
2023-05-23T12:52:17.733Z,14.57
2023-05-23T12:54:47.104Z,14.49
2023-05-23T12:57:16.195Z,14.44
2023-05-23T12:59:45.163Z,14.42
2023-05-23T13:02:14.516Z,14.39
2023-05-23T13:04:43.967Z,14.28
2023-05-23T13:07:13.363Z,14.29
2023-05-23T13:09:42.637Z,14.27
2023-05-23T13:12:12.975Z,14.15
2023-05-23T13:14:42.841Z,14.19
2023-05-23T13:17:11.826Z,14.14
2023-05-23T13:19:40.887Z,14.12
2023-05-23T13:22:13.665Z,14.02
2023-05-23T13:24:44.226Z,14.06
2023-05-23T13:27:13.062Z,14.02
2023-05-23T13:29:42.665Z,14.00
2023-05-23T13:32:11.525Z,14.02
2023-05-23T13:34:40.551Z,14.02
2023-05-23T13:37:09.515Z,13.98
2023-05-23T13:39:38.502Z,13.91
2023-05-23T13:42:08.771Z,13.89
2023-05-23T13:44:38.058Z,13.84
2023-05-23T13:47:14.734Z,13.82
2023-05-23T13:49:43.875Z,13.82
2023-05-23T13:52:14.520Z,13.81
2023-05-23T13:54:44.869Z,13.78
2023-05-23T13:57:13.782Z,13.77
2023-05-23T13:59:42.589Z,13.76
2023-05-23T14:02:12.729Z,13.73
2023-05-23T14:04:41.867Z,13.68
2023-05-23T14:07:10.723Z,13.60
2023-05-23T14:09:40.342Z,13.56
2023-05-23T14:12:09.450Z,13.51
2023-05-23T14:14:38.345Z,13.46
2023-05-23T14:17:07.304Z,13.42
2023-05-23T14:19:36.482Z,13.34
2023-05-23T14:22:05.518Z,13.29
2023-05-23T14:24:34.427Z,13.25
2023-05-23T14:27:03.396Z,13.25
2023-05-23T14:29:32.529Z,13.24
2023-05-23T14:32:03.409Z,13.17
2023-05-23T14:34:32.752Z,13.14
2023-05-23T14:37:01.962Z,13.10
2023-05-23T14:39:30.941Z,13.08
2023-05-23T14:42:00.165Z,13.05
2023-05-23T14:44:29.207Z,13.04
2023-05-23T14:46:58.251Z,12.95
2023-05-23T14:49:27.316Z,12.93
2023-05-23T14:51:56.547Z,12.93
2023-05-23T14:54:25.469Z,12.92
2023-05-23T14:56:54.416Z,12.88
2023-05-23T14:59:23.749Z,12.85
2023-05-23T15:01:53.517Z,12.90
2023-05-23T15:04:22.789Z,12.87
2023-05-23T15:06:51.881Z,12.79
2023-05-23T15:09:20.897Z,12.76
2023-05-23T15:11:50.347Z,12.71
2023-05-23T15:14:19.369Z,12.71
2023-05-23T15:16:49.602Z,12.71
2023-05-23T15:19:18.645Z,12.70
2023-05-23T15:21:50.995Z,12.68
2023-05-23T15:24:20.727Z,12.70
2023-05-23T15:26:49.843Z,12.66
2023-05-23T15:29:18.907Z,12.67
2023-05-23T15:31:48.010Z,12.70
2023-05-23T15:34:16.995Z,12.74
2023-05-23T15:36:45.998Z,12.74
2023-05-23T15:39:14.894Z,12.75
2023-05-23T15:41:43.989Z,12.68
2023-05-23T15:44:15.043Z,12.66
2023-05-23T15:46:44.366Z,12.56
2023-05-23T15:49:24.855Z,12.54
2023-05-23T15:51:55.751Z,12.48
2023-05-23T15:54:24.808Z,12.39
2023-05-23T15:56:53.787Z,12.37
2023-05-23T15:59:22.721Z,12.30
2023-05-23T16:01:53.332Z,12.33
2023-05-23T16:04:24.128Z,12.36
2023-05-23T16:06:53.176Z,12.34
2023-05-23T16:09:22.057Z,12.38
2023-05-23T16:11:50.998Z,12.37
2023-05-23T16:14:20.420Z,12.30
2023-05-23T16:16:49.519Z,12.13
2023-05-23T16:19:18.510Z,11.97
2023-05-23T16:21:47.559Z,11.80
2023-05-23T16:24:17.723Z,11.79
2023-05-23T16:26:46.541Z,11.78
2023-05-23T16:29:15.642Z,11.75
2023-05-23T16:31:44.564Z,11.79
2023-05-23T16:34:13.522Z,11.79
2023-05-23T16:36:42.558Z,11.83
2023-05-23T16:39:11.860Z,11.83
2023-05-23T16:41:40.832Z,11.82
2023-05-23T16:44:09.752Z,11.83
2023-05-23T16:46:38.934Z,11.82
2023-05-23T16:49:07.852Z,11.84
2023-05-23T16:51:36.786Z,11.83
2023-05-23T16:54:05.770Z,11.84
2023-05-23T16:56:34.662Z,11.83
2023-05-23T16:59:03.642Z,11.80
2023-05-23T17:01:33.591Z,11.80
2023-05-23T17:04:02.614Z,11.81
2023-05-23T17:06:32.055Z,11.80
2023-05-23T17:09:00.955Z,11.83
2023-05-23T17:11:29.880Z,11.81
2023-05-23T17:13:58.707Z,11.86
2023-05-23T17:16:27.697Z,11.79
2023-05-23T17:18:57.012Z,11.72
2023-05-23T17:21:26.128Z,11.67
2023-05-23T17:23:55.046Z,11.65
2023-05-23T17:26:24.169Z,11.62
2023-05-23T17:28:53.268Z,11.56
2023-05-23T17:31:22.259Z,11.50
2023-05-23T17:33:51.311Z,11.36
2023-05-23T17:36:20.203Z,11.10
2023-05-23T17:38:49.458Z,10.79
2023-05-23T17:41:18.804Z,10.48
2023-05-23T17:43:47.744Z,10.20
2023-05-23T17:46:16.944Z,9.93
2023-05-23T17:48:47.951Z,9.65
2023-05-23T17:51:17.584Z,9.44
2023-05-23T17:53:46.554Z,9.25
2023-05-23T17:56:15.350Z,9.04
2023-05-23T17:58:44.528Z,8.88
2023-05-23T18:01:15.304Z,8.74
2023-05-23T18:03:44.611Z,8.55
2023-05-23T18:06:13.600Z,8.40
2023-05-23T18:08:42.569Z,8.30
2023-05-23T18:11:11.533Z,8.18
2023-05-23T18:13:40.479Z,7.99
2023-05-23T18:16:09.944Z,7.86
2023-05-23T18:18:38.817Z,7.78
2023-05-23T18:21:09.443Z,7.68
2023-05-23T18:23:38.315Z,7.58
2023-05-23T18:26:07.230Z,7.54
2023-05-23T18:28:36.260Z,7.45
2023-05-23T18:31:05.301Z,7.41
2023-05-23T18:33:34.241Z,7.29
2023-05-23T18:36:03.740Z,7.20
2023-05-23T18:38:32.755Z,7.10
2023-05-23T18:41:01.833Z,7.03
2023-05-23T18:43:30.576Z,6.94
2023-05-23T18:45:59.318Z,6.92
2023-05-23T18:48:28.286Z,6.87
2023-05-23T18:50:57.245Z,6.85
2023-05-23T18:53:26.147Z,6.81
2023-05-23T18:55:55.070Z,6.76
2023-05-23T18:58:23.922Z,6.69
2023-05-23T19:00:54.166Z,6.62
2023-05-23T19:03:23.220Z,6.53
2023-05-23T19:05:52.241Z,6.58
2023-05-23T19:08:21.080Z,6.60
2023-05-23T19:10:49.999Z,6.57
2023-05-23T19:13:20.668Z,6.55
2023-05-23T19:15:52.615Z,6.56
2023-05-23T19:18:21.554Z,6.57
2023-05-23T19:20:52.355Z,6.59
2023-05-23T19:23:21.960Z,6.61
2023-05-23T19:25:50.765Z,6.67
2023-05-23T19:28:19.707Z,6.71
2023-05-23T19:30:48.917Z,6.76
2023-05-23T19:33:19.029Z,6.76
2023-05-23T19:35:47.847Z,6.79
2023-05-23T19:38:16.800Z,6.82
2023-05-23T19:40:47.584Z,6.84
2023-05-23T19:43:16.526Z,6.89
2023-05-23T19:45:45.401Z,6.91
2023-05-23T19:48:14.768Z,6.92
2023-05-23T19:50:44.321Z,6.95
2023-05-23T19:53:13.558Z,6.98
2023-05-23T19:55:43.490Z,6.98
2023-05-23T19:58:12.321Z,6.95
2023-05-23T20:00:42.893Z,6.91
2023-05-23T20:03:12.849Z,6.83
2023-05-23T20:05:42.185Z,6.82
2023-05-23T20:08:11.322Z,6.78
2023-05-23T20:10:40.634Z,6.68
2023-05-23T20:13:09.810Z,6.59
2023-05-23T20:15:40.509Z,6.52
2023-05-23T20:18:10.143Z,6.45
2023-05-23T20:20:39.105Z,6.39
2023-05-23T20:23:08.066Z,6.29
2023-05-23T20:25:36.896Z,6.19
2023-05-23T20:28:06.266Z,6.14
2023-05-23T20:30:35.346Z,6.13
2023-05-23T20:33:04.400Z,6.22
2023-05-23T20:35:33.329Z,6.29
2023-05-23T20:38:02.269Z,6.30
2023-05-23T20:40:34.120Z,6.24
2023-05-23T20:43:05.696Z,6.02
2023-05-23T20:45:34.813Z,6.01
2023-05-23T20:48:03.864Z,6.09
2023-05-23T20:50:34.332Z,6.15
2023-05-23T20:53:03.641Z,6.17
2023-05-23T20:55:35.474Z,6.16
2023-05-23T20:58:04.396Z,6.13
2023-05-23T21:00:33.398Z,6.17
2023-05-23T21:03:03.658Z,6.14
2023-05-23T21:05:32.807Z,6.14
2023-05-23T21:08:01.866Z,6.11
2023-05-23T21:10:30.828Z,6.12
2023-05-23T21:13:00.711Z,6.10
2023-05-23T21:15:29.910Z,6.09
2023-05-23T21:17:59.430Z,6.09
2023-05-23T21:20:29.560Z,6.04
2023-05-23T21:22:58.433Z,5.94
2023-05-23T21:25:27.959Z,5.84
2023-05-23T21:27:56.792Z,5.75
2023-05-23T21:30:26.413Z,5.76
2023-05-23T21:32:55.478Z,5.69
2023-05-23T21:35:24.460Z,5.64
2023-05-23T21:37:53.594Z,5.55
2023-05-23T21:40:22.497Z,5.59
2023-05-23T21:42:51.350Z,5.68
2023-05-23T21:45:20.213Z,5.70
2023-05-23T21:47:49.091Z,5.73
2023-05-23T21:50:17.984Z,5.75
2023-05-23T21:52:46.863Z,5.78
2023-05-23T21:55:15.886Z,5.77
2023-05-23T21:57:44.750Z,5.77
2023-05-23T22:00:15.438Z,5.76
2023-05-23T22:02:45.016Z,5.79
2023-05-23T22:05:14.105Z,5.75
2023-05-23T22:07:43.324Z,5.69
2023-05-23T22:10:12.667Z,5.63
2023-05-23T22:12:41.701Z,5.57
2023-05-23T22:15:11.079Z,5.68
2023-05-23T22:17:43.998Z,5.85
2023-05-23T22:20:15.224Z,6.10
2023-05-23T22:22:44.054Z,6.24
2023-05-23T22:25:12.901Z,6.28
2023-05-23T22:27:42.023Z,6.34
2023-05-23T22:30:11.418Z,6.28
2023-05-23T22:32:40.264Z,6.15
2023-05-23T22:35:09.549Z,6.05
2023-05-23T22:37:38.436Z,6.03
2023-05-23T22:40:08.290Z,6.07
2023-05-23T22:42:37.547Z,6.20
2023-05-23T22:45:07.958Z,6.23
2023-05-23T22:47:37.057Z,6.12
2023-05-23T22:50:06.228Z,5.96
2023-05-23T22:52:35.452Z,5.71
2023-05-23T22:55:06.707Z,5.45
2023-05-23T22:57:36.967Z,5.25
2023-05-23T23:00:07.752Z,5.14
2023-05-23T23:02:36.856Z,5.11
2023-05-23T23:05:06.666Z,5.04
2023-05-23T23:07:35.433Z,5.02
2023-05-23T23:10:04.664Z,4.96
2023-05-23T23:12:33.926Z,4.85
2023-05-23T23:15:02.859Z,4.68
2023-05-23T23:17:36.061Z,4.48
2023-05-23T23:20:08.530Z,4.29
2023-05-23T23:22:37.570Z,4.34
2023-05-23T23:25:12.957Z,4.35
2023-05-23T23:27:41.944Z,4.30
2023-05-23T23:30:11.231Z,4.25
2023-05-23T23:32:40.142Z,4.23
2023-05-23T23:35:09.404Z,4.27
2023-05-23T23:37:38.325Z,4.25
2023-05-23T23:40:09.388Z,4.24
2023-05-23T23:42:38.523Z,4.29
2023-05-23T23:45:07.861Z,4.29
2023-05-23T23:47:36.990Z,4.19
2023-05-23T23:50:07.350Z,4.20
2023-05-23T23:52:38.012Z,4.29
2023-05-23T23:55:07.696Z,4.29
2023-05-23T23:57:36.625Z,4.28
